sensor_id;sensor_type;location;lat;lon;timestamp;P1;durP1;ratioP1;P2;durP2;ratioP2
6997;SDS011;3539;47.982;12.238;2023-02-28T00:01:26;4.10;;;3.33;;
6997;SDS011;3539;47.982;12.238;2023-02-28T00:03:53;3.27;;;2.87;;
6997;SDS011;3539;47.982;12.238;2023-02-28T00:06:20;4.33;;;2.83;;
6997;SDS011;3539;47.982;12.238;2023-02-28T00:08:49;3.70;;;3.10;;
6997;SDS011;3539;47.982;12.238;2023-02-28T00:11:16;5.17;;;3.00;;
6997;SDS011;3539;47.982;12.238;2023-02-28T00:13:43;3.40;;;3.03;;
6997;SDS011;3539;47.982;12.238;2023-02-28T00:16:12;3.53;;;2.90;;
6997;SDS011;3539;47.982;12.238;2023-02-28T00:18:39;3.60;;;3.20;;
6997;SDS011;3539;47.982;12.238;2023-02-28T00:21:06;3.67;;;2.90;;
6997;SDS011;3539;47.982;12.238;2023-02-28T00:23:33;3.40;;;3.10;;
6997;SDS011;3539;47.982;12.238;2023-02-28T00:26:01;3.87;;;2.90;;
6997;SDS011;3539;47.982;12.238;2023-02-28T00:28:28;3.53;;;3.00;;
6997;SDS011;3539;47.982;12.238;2023-02-28T00:30:55;5.27;;;3.00;;
6997;SDS011;3539;47.982;12.238;2023-02-28T00:33:22;3.77;;;3.30;;
6997;SDS011;3539;47.982;12.238;2023-02-28T00:35:49;4.13;;;3.43;;
6997;SDS011;3539;47.982;12.238;2023-02-28T00:38:15;4.50;;;3.10;;
6997;SDS011;3539;47.982;12.238;2023-02-28T00:40:42;5.43;;;3.13;;
6997;SDS011;3539;47.982;12.238;2023-02-28T00:43:10;4.50;;;3.50;;
6997;SDS011;3539;47.982;12.238;2023-02-28T00:45:37;3.90;;;3.43;;
6997;SDS011;3539;47.982;12.238;2023-02-28T00:48:04;3.80;;;3.00;;
6997;SDS011;3539;47.982;12.238;2023-02-28T00:50:31;4.60;;;3.10;;
6997;SDS011;3539;47.982;12.238;2023-02-28T00:52:57;4.57;;;3.20;;
6997;SDS011;3539;47.982;12.238;2023-02-28T00:55:24;4.43;;;3.47;;
6997;SDS011;3539;47.982;12.238;2023-02-28T00:57:51;4.53;;;3.47;;
6997;SDS011;3539;47.982;12.238;2023-02-28T01:00:19;4.13;;;3.53;;
6997;SDS011;3539;47.982;12.238;2023-02-28T01:02:46;3.53;;;3.23;;
6997;SDS011;3539;47.982;12.238;2023-02-28T01:05:13;4.17;;;3.63;;
6997;SDS011;3539;47.982;12.238;2023-02-28T01:07:40;4.40;;;3.60;;
6997;SDS011;3539;47.982;12.238;2023-02-28T01:10:07;4.23;;;3.60;;
6997;SDS011;3539;47.982;12.238;2023-02-28T01:12:34;4.80;;;4.03;;
6997;SDS011;3539;47.982;12.238;2023-02-28T01:15:01;5.37;;;3.67;;
6997;SDS011;3539;47.982;12.238;2023-02-28T01:17:30;4.53;;;4.00;;
6997;SDS011;3539;47.982;12.238;2023-02-28T01:19:56;6.07;;;4.13;;
6997;SDS011;3539;47.982;12.238;2023-02-28T01:22:23;6.73;;;4.60;;
6997;SDS011;3539;47.982;12.238;2023-02-28T01:24:50;4.90;;;3.83;;
6997;SDS011;3539;47.982;12.238;2023-02-28T01:27:17;6.83;;;4.67;;
6997;SDS011;3539;47.982;12.238;2023-02-28T01:29:43;6.53;;;4.77;;
6997;SDS011;3539;47.982;12.238;2023-02-28T01:32:10;5.67;;;4.60;;
6997;SDS011;3539;47.982;12.238;2023-02-28T01:34:38;6.73;;;4.63;;
6997;SDS011;3539;47.982;12.238;2023-02-28T01:37:05;6.37;;;5.30;;
6997;SDS011;3539;47.982;12.238;2023-02-28T01:39:31;5.93;;;5.20;;
6997;SDS011;3539;47.982;12.238;2023-02-28T01:41:58;6.40;;;5.20;;
6997;SDS011;3539;47.982;12.238;2023-02-28T01:47:29;6.97;;;6.13;;
6997;SDS011;3539;47.982;12.238;2023-02-28T01:50:00;6.43;;;5.40;;
6997;SDS011;3539;47.982;12.238;2023-02-28T01:52:27;7.93;;;6.03;;
6997;SDS011;3539;47.982;12.238;2023-02-28T01:54:55;6.93;;;5.37;;
6997;SDS011;3539;47.982;12.238;2023-02-28T01:57:24;6.50;;;5.67;;
6997;SDS011;3539;47.982;12.238;2023-02-28T01:59:54;8.13;;;6.10;;
6997;SDS011;3539;47.982;12.238;2023-02-28T02:02:24;9.03;;;6.60;;
6997;SDS011;3539;47.982;12.238;2023-02-28T02:04:52;9.90;;;6.93;;
6997;SDS011;3539;47.982;12.238;2023-02-28T02:07:22;8.83;;;7.27;;
6997;SDS011;3539;47.982;12.238;2023-02-28T02:09:49;8.43;;;7.03;;
6997;SDS011;3539;47.982;12.238;2023-02-28T02:12:19;10.33;;;7.27;;
6997;SDS011;3539;47.982;12.238;2023-02-28T02:14:55;11.43;;;7.33;;
6997;SDS011;3539;47.982;12.238;2023-02-28T02:17:29;9.17;;;7.63;;
6997;SDS011;3539;47.982;12.238;2023-02-28T02:23:09;10.03;;;7.60;;
6997;SDS011;3539;47.982;12.238;2023-02-28T02:25:52;9.43;;;7.20;;
6997;SDS011;3539;47.982;12.238;2023-02-28T02:34:33;11.00;;;7.90;;
6997;SDS011;3539;47.982;12.238;2023-02-28T02:37:08;10.70;;;8.07;;
6997;SDS011;3539;47.982;12.238;2023-02-28T02:39:40;11.60;;;8.10;;
6997;SDS011;3539;47.982;12.238;2023-02-28T02:42:15;11.00;;;8.10;;
6997;SDS011;3539;47.982;12.238;2023-02-28T02:44:45;10.07;;;8.60;;
6997;SDS011;3539;47.982;12.238;2023-02-28T02:47:15;11.77;;;7.80;;
6997;SDS011;3539;47.982;12.238;2023-02-28T02:49:46;11.93;;;8.20;;
6997;SDS011;3539;47.982;12.238;2023-02-28T02:52:16;12.90;;;8.33;;
6997;SDS011;3539;47.982;12.238;2023-02-28T02:54:46;8.60;;;7.43;;
6997;SDS011;3539;47.982;12.238;2023-02-28T02:57:15;9.90;;;8.67;;
6997;SDS011;3539;47.982;12.238;2023-02-28T02:59:46;10.83;;;8.77;;
6997;SDS011;3539;47.982;12.238;2023-02-28T03:02:14;12.80;;;8.10;;
6997;SDS011;3539;47.982;12.238;2023-02-28T03:04:43;12.17;;;8.80;;
6997;SDS011;3539;47.982;12.238;2023-02-28T03:07:15;12.63;;;8.47;;
6997;SDS011;3539;47.982;12.238;2023-02-28T03:09:49;11.40;;;7.83;;
6997;SDS011;3539;47.982;12.238;2023-02-28T03:12:17;12.03;;;8.93;;
6997;SDS011;3539;47.982;12.238;2023-02-28T03:14:47;10.80;;;8.27;;
6997;SDS011;3539;47.982;12.238;2023-02-28T03:17:36;10.70;;;8.97;;
6997;SDS011;3539;47.982;12.238;2023-02-28T03:20:16;11.50;;;8.73;;
6997;SDS011;3539;47.982;12.238;2023-02-28T03:22:56;13.57;;;8.90;;
6997;SDS011;3539;47.982;12.238;2023-02-28T03:25:29;13.00;;;9.10;;
6997;SDS011;3539;47.982;12.238;2023-02-28T03:28:00;11.00;;;9.10;;
6997;SDS011;3539;47.982;12.238;2023-02-28T03:30:33;11.80;;;9.57;;
6997;SDS011;3539;47.982;12.238;2023-02-28T03:33:06;13.60;;;9.30;;
6997;SDS011;3539;47.982;12.238;2023-02-28T03:35:36;13.57;;;9.97;;
6997;SDS011;3539;47.982;12.238;2023-02-28T03:38:07;14.33;;;9.60;;
6997;SDS011;3539;47.982;12.238;2023-02-28T03:40:39;12.40;;;10.03;;
6997;SDS011;3539;47.982;12.238;2023-02-28T03:43:10;12.53;;;9.93;;
6997;SDS011;3539;47.982;12.238;2023-02-28T03:45:39;12.67;;;9.47;;
6997;SDS011;3539;47.982;12.238;2023-02-28T03:48:08;15.17;;;10.87;;
6997;SDS011;3539;47.982;12.238;2023-02-28T03:50:40;12.27;;;10.10;;
6997;SDS011;3539;47.982;12.238;2023-02-28T03:53:09;12.13;;;9.93;;
6997;SDS011;3539;47.982;12.238;2023-02-28T03:55:40;16.00;;;11.00;;
6997;SDS011;3539;47.982;12.238;2023-02-28T03:58:11;12.97;;;9.57;;
6997;SDS011;3539;47.982;12.238;2023-02-28T04:00:43;13.23;;;9.17;;
6997;SDS011;3539;47.982;12.238;2023-02-28T04:03:12;12.67;;;9.77;;
6997;SDS011;3539;47.982;12.238;2023-02-28T04:05:46;13.10;;;10.20;;
6997;SDS011;3539;47.982;12.238;2023-02-28T04:08:15;12.50;;;9.50;;
6997;SDS011;3539;47.982;12.238;2023-02-28T04:10:42;12.80;;;10.37;;
6997;SDS011;3539;47.982;12.238;2023-02-28T04:13:11;12.77;;;8.90;;
6997;SDS011;3539;47.982;12.238;2023-02-28T04:15:38;12.00;;;9.00;;
6997;SDS011;3539;47.982;12.238;2023-02-28T04:18:05;14.60;;;10.43;;
6997;SDS011;3539;47.982;12.238;2023-02-28T04:20:32;11.27;;;9.40;;
6997;SDS011;3539;47.982;12.238;2023-02-28T04:23:00;14.80;;;10.10;;
6997;SDS011;3539;47.982;12.238;2023-02-28T04:25:27;12.53;;;10.60;;
6997;SDS011;3539;47.982;12.238;2023-02-28T04:27:53;14.13;;;10.83;;
6997;SDS011;3539;47.982;12.238;2023-02-28T04:30:20;14.27;;;10.43;;
6997;SDS011;3539;47.982;12.238;2023-02-28T04:32:47;15.13;;;9.53;;
6997;SDS011;3539;47.982;12.238;2023-02-28T04:35:13;11.83;;;9.13;;
6997;SDS011;3539;47.982;12.238;2023-02-28T04:37:40;12.37;;;9.13;;
6997;SDS011;3539;47.982;12.238;2023-02-28T04:40:09;13.53;;;9.33;;
6997;SDS011;3539;47.982;12.238;2023-02-28T04:42:37;13.87;;;9.47;;
6997;SDS011;3539;47.982;12.238;2023-02-28T04:45:04;12.20;;;9.30;;
6997;SDS011;3539;47.982;12.238;2023-02-28T04:47:31;15.17;;;9.30;;
6997;SDS011;3539;47.982;12.238;2023-02-28T04:49:58;13.37;;;9.80;;
6997;SDS011;3539;47.982;12.238;2023-02-28T04:52:25;13.07;;;9.60;;
6997;SDS011;3539;47.982;12.238;2023-02-28T04:54:53;14.30;;;9.73;;
6997;SDS011;3539;47.982;12.238;2023-02-28T04:57:21;12.37;;;9.87;;
6997;SDS011;3539;47.982;12.238;2023-02-28T04:59:48;14.30;;;10.03;;
6997;SDS011;3539;47.982;12.238;2023-02-28T05:02:15;13.90;;;10.67;;
6997;SDS011;3539;47.982;12.238;2023-02-28T05:04:42;14.30;;;11.03;;
6997;SDS011;3539;47.982;12.238;2023-02-28T05:07:08;16.27;;;10.63;;
6997;SDS011;3539;47.982;12.238;2023-02-28T05:09:35;13.83;;;10.47;;
6997;SDS011;3539;47.982;12.238;2023-02-28T05:12:02;16.27;;;10.63;;
6997;SDS011;3539;47.982;12.238;2023-02-28T05:14:30;13.27;;;10.07;;
6997;SDS011;3539;47.982;12.238;2023-02-28T05:16:57;14.20;;;9.60;;
6997;SDS011;3539;47.982;12.238;2023-02-28T05:19:23;13.13;;;9.43;;
6997;SDS011;3539;47.982;12.238;2023-02-28T05:21:51;16.77;;;9.83;;
6997;SDS011;3539;47.982;12.238;2023-02-28T05:24:18;12.70;;;9.87;;
6997;SDS011;3539;47.982;12.238;2023-02-28T05:26:48;13.90;;;10.17;;
6997;SDS011;3539;47.982;12.238;2023-02-28T05:29:14;14.53;;;11.03;;
6997;SDS011;3539;47.982;12.238;2023-02-28T05:31:43;13.63;;;10.73;;
6997;SDS011;3539;47.982;12.238;2023-02-28T05:34:09;14.50;;;10.33;;
6997;SDS011;3539;47.982;12.238;2023-02-28T05:36:37;14.93;;;10.63;;
6997;SDS011;3539;47.982;12.238;2023-02-28T05:39:04;17.40;;;12.13;;
6997;SDS011;3539;47.982;12.238;2023-02-28T05:41:32;17.87;;;12.27;;
6997;SDS011;3539;47.982;12.238;2023-02-28T05:43:59;16.57;;;11.97;;
6997;SDS011;3539;47.982;12.238;2023-02-28T05:46:26;18.23;;;12.90;;
6997;SDS011;3539;47.982;12.238;2023-02-28T05:48:54;19.87;;;12.67;;
6997;SDS011;3539;47.982;12.238;2023-02-28T05:51:22;21.50;;;14.07;;
6997;SDS011;3539;47.982;12.238;2023-02-28T05:53:49;19.20;;;13.50;;
6997;SDS011;3539;47.982;12.238;2023-02-28T05:56:16;18.30;;;12.10;;
6997;SDS011;3539;47.982;12.238;2023-02-28T05:58:43;18.00;;;12.17;;
6997;SDS011;3539;47.982;12.238;2023-02-28T06:01:20;16.67;;;12.80;;
6997;SDS011;3539;47.982;12.238;2023-02-28T06:03:48;16.03;;;12.43;;
6997;SDS011;3539;47.982;12.238;2023-02-28T06:06:16;18.33;;;12.87;;
6997;SDS011;3539;47.982;12.238;2023-02-28T06:08:43;17.40;;;12.40;;
6997;SDS011;3539;47.982;12.238;2023-02-28T06:11:10;17.90;;;13.00;;
6997;SDS011;3539;47.982;12.238;2023-02-28T06:13:37;20.50;;;13.60;;
6997;SDS011;3539;47.982;12.238;2023-02-28T06:16:04;16.97;;;12.57;;
6997;SDS011;3539;47.982;12.238;2023-02-28T06:18:32;22.17;;;13.50;;
6997;SDS011;3539;47.982;12.238;2023-02-28T06:20:59;22.20;;;13.87;;
6997;SDS011;3539;47.982;12.238;2023-02-28T06:23:27;17.97;;;14.23;;
6997;SDS011;3539;47.982;12.238;2023-02-28T06:25:53;23.23;;;14.93;;
6997;SDS011;3539;47.982;12.238;2023-02-28T06:28:23;23.63;;;16.33;;
6997;SDS011;3539;47.982;12.238;2023-02-28T06:30:50;20.97;;;14.93;;
6997;SDS011;3539;47.982;12.238;2023-02-28T06:33:17;22.47;;;15.27;;
6997;SDS011;3539;47.982;12.238;2023-02-28T06:35:44;19.47;;;14.27;;
6997;SDS011;3539;47.982;12.238;2023-02-28T06:38:10;19.90;;;14.33;;
6997;SDS011;3539;47.982;12.238;2023-02-28T06:40:38;20.47;;;15.20;;
6997;SDS011;3539;47.982;12.238;2023-02-28T06:43:05;22.07;;;15.23;;
6997;SDS011;3539;47.982;12.238;2023-02-28T06:45:32;21.77;;;15.90;;
6997;SDS011;3539;47.982;12.238;2023-02-28T06:47:59;20.27;;;14.47;;
6997;SDS011;3539;47.982;12.238;2023-02-28T06:50:25;25.13;;;16.30;;
6997;SDS011;3539;47.982;12.238;2023-02-28T06:52:54;20.87;;;15.60;;
6997;SDS011;3539;47.982;12.238;2023-02-28T06:55:21;21.37;;;14.20;;
6997;SDS011;3539;47.982;12.238;2023-02-28T06:57:49;29.73;;;19.80;;
6997;SDS011;3539;47.982;12.238;2023-02-28T07:00:16;23.20;;;15.23;;
6997;SDS011;3539;47.982;12.238;2023-02-28T07:02:43;21.73;;;15.77;;
6997;SDS011;3539;47.982;12.238;2023-02-28T07:05:10;23.73;;;17.63;;
6997;SDS011;3539;47.982;12.238;2023-02-28T07:07:37;19.87;;;13.90;;
6997;SDS011;3539;47.982;12.238;2023-02-28T07:10:08;19.03;;;14.67;;
6997;SDS011;3539;47.982;12.238;2023-02-28T07:12:36;18.97;;;14.00;;
6997;SDS011;3539;47.982;12.238;2023-02-28T07:15:05;22.10;;;14.90;;
6997;SDS011;3539;47.982;12.238;2023-02-28T07:17:32;21.20;;;14.70;;
6997;SDS011;3539;47.982;12.238;2023-02-28T07:19:59;20.80;;;14.73;;
6997;SDS011;3539;47.982;12.238;2023-02-28T07:22:26;26.17;;;17.77;;
6997;SDS011;3539;47.982;12.238;2023-02-28T07:24:53;20.53;;;15.57;;
6997;SDS011;3539;47.982;12.238;2023-02-28T07:27:20;21.07;;;15.27;;
6997;SDS011;3539;47.982;12.238;2023-02-28T07:29:50;15.93;;;13.17;;
6997;SDS011;3539;47.982;12.238;2023-02-28T07:32:19;20.97;;;14.77;;
6997;SDS011;3539;47.982;12.238;2023-02-28T07:34:46;18.47;;;14.90;;
6997;SDS011;3539;47.982;12.238;2023-02-28T07:37:13;22.77;;;15.77;;
6997;SDS011;3539;47.982;12.238;2023-02-28T07:39:40;18.27;;;14.87;;
6997;SDS011;3539;47.982;12.238;2023-02-28T07:42:08;20.50;;;14.20;;
6997;SDS011;3539;47.982;12.238;2023-02-28T07:44:37;21.30;;;14.77;;
6997;SDS011;3539;47.982;12.238;2023-02-28T07:47:06;19.73;;;15.90;;
6997;SDS011;3539;47.982;12.238;2023-02-28T07:49:35;18.13;;;13.93;;
6997;SDS011;3539;47.982;12.238;2023-02-28T07:52:02;18.33;;;15.63;;
6997;SDS011;3539;47.982;12.238;2023-02-28T07:54:29;19.63;;;15.27;;
6997;SDS011;3539;47.982;12.238;2023-02-28T07:56:55;18.83;;;15.13;;
6997;SDS011;3539;47.982;12.238;2023-02-28T07:59:22;18.87;;;14.73;;
6997;SDS011;3539;47.982;12.238;2023-02-28T08:01:49;19.93;;;15.80;;
6997;SDS011;3539;47.982;12.238;2023-02-28T08:04:16;20.17;;;14.87;;
6997;SDS011;3539;47.982;12.238;2023-02-28T08:06:44;19.77;;;14.63;;
6997;SDS011;3539;47.982;12.238;2023-02-28T08:09:11;19.13;;;14.90;;
6997;SDS011;3539;47.982;12.238;2023-02-28T08:11:37;18.70;;;15.23;;
6997;SDS011;3539;47.982;12.238;2023-02-28T08:14:04;16.90;;;13.57;;
6997;SDS011;3539;47.982;12.238;2023-02-28T08:16:31;22.17;;;14.90;;
6997;SDS011;3539;47.982;12.238;2023-02-28T08:18:58;18.57;;;14.07;;
6997;SDS011;3539;47.982;12.238;2023-02-28T08:21:24;18.17;;;14.77;;
6997;SDS011;3539;47.982;12.238;2023-02-28T08:23:52;18.23;;;14.83;;
6997;SDS011;3539;47.982;12.238;2023-02-28T08:26:19;15.53;;;13.90;;
6997;SDS011;3539;47.982;12.238;2023-02-28T08:28:46;16.57;;;14.30;;
6997;SDS011;3539;47.982;12.238;2023-02-28T08:31:13;22.37;;;16.13;;
6997;SDS011;3539;47.982;12.238;2023-02-28T08:33:42;17.50;;;14.30;;
6997;SDS011;3539;47.982;12.238;2023-02-28T08:36:09;17.00;;;13.63;;
6997;SDS011;3539;47.982;12.238;2023-02-28T08:38:36;19.13;;;14.23;;
6997;SDS011;3539;47.982;12.238;2023-02-28T08:41:06;18.50;;;14.37;;
6997;SDS011;3539;47.982;12.238;2023-02-28T08:43:34;17.97;;;15.37;;
6997;SDS011;3539;47.982;12.238;2023-02-28T08:46:00;17.97;;;14.37;;
6997;SDS011;3539;47.982;12.238;2023-02-28T08:48:29;17.27;;;13.93;;
6997;SDS011;3539;47.982;12.238;2023-02-28T08:50:57;18.97;;;14.70;;
6997;SDS011;3539;47.982;12.238;2023-02-28T08:53:24;18.00;;;14.80;;
6997;SDS011;3539;47.982;12.238;2023-02-28T08:55:58;16.57;;;13.90;;
6997;SDS011;3539;47.982;12.238;2023-02-28T08:58:26;20.13;;;14.13;;
6997;SDS011;3539;47.982;12.238;2023-02-28T09:00:53;16.77;;;14.53;;
6997;SDS011;3539;47.982;12.238;2023-02-28T09:03:20;18.77;;;14.60;;
6997;SDS011;3539;47.982;12.238;2023-02-28T09:05:54;18.57;;;14.03;;
6997;SDS011;3539;47.982;12.238;2023-02-28T09:08:21;15.87;;;13.50;;
6997;SDS011;3539;47.982;12.238;2023-02-28T09:10:48;18.03;;;13.77;;
6997;SDS011;3539;47.982;12.238;2023-02-28T09:13:15;15.87;;;13.63;;
6997;SDS011;3539;47.982;12.238;2023-02-28T09:15:43;16.97;;;14.30;;
6997;SDS011;3539;47.982;12.238;2023-02-28T09:18:10;15.67;;;13.50;;
6997;SDS011;3539;47.982;12.238;2023-02-28T09:20:37;15.87;;;13.33;;
6997;SDS011;3539;47.982;12.238;2023-02-28T09:23:04;17.57;;;13.07;;
6997;SDS011;3539;47.982;12.238;2023-02-28T09:25:31;18.53;;;14.07;;
6997;SDS011;3539;47.982;12.238;2023-02-28T09:27:58;16.47;;;14.67;;
6997;SDS011;3539;47.982;12.238;2023-02-28T09:30:25;15.87;;;13.47;;
6997;SDS011;3539;47.982;12.238;2023-02-28T09:32:53;14.97;;;12.77;;
6997;SDS011;3539;47.982;12.238;2023-02-28T09:35:20;15.83;;;13.13;;
6997;SDS011;3539;47.982;12.238;2023-02-28T09:37:48;14.80;;;12.60;;
6997;SDS011;3539;47.982;12.238;2023-02-28T09:40:16;15.80;;;13.07;;
6997;SDS011;3539;47.982;12.238;2023-02-28T09:42:46;15.13;;;12.55;;
6997;SDS011;3539;47.982;12.238;2023-02-28T09:45:17;17.10;;;13.07;;
6997;SDS011;3539;47.982;12.238;2023-02-28T09:47:48;15.27;;;12.47;;
6997;SDS011;3539;47.982;12.238;2023-02-28T09:50:19;16.43;;;13.00;;
6997;SDS011;3539;47.982;12.238;2023-02-28T09:52:50;15.03;;;12.13;;
6997;SDS011;3539;47.982;12.238;2023-02-28T09:55:22;15.73;;;12.70;;
6997;SDS011;3539;47.982;12.238;2023-02-28T09:57:53;15.50;;;12.50;;
6997;SDS011;3539;47.982;12.238;2023-02-28T10:00:22;17.03;;;13.30;;
6997;SDS011;3539;47.982;12.238;2023-02-28T10:02:54;14.67;;;12.90;;
6997;SDS011;3539;47.982;12.238;2023-02-28T10:05:27;16.70;;;12.83;;
6997;SDS011;3539;47.982;12.238;2023-02-28T10:08:00;17.30;;;13.30;;
6997;SDS011;3539;47.982;12.238;2023-02-28T10:10:32;18.10;;;13.40;;
6997;SDS011;3539;47.982;12.238;2023-02-28T10:13:04;15.97;;;13.33;;
6997;SDS011;3539;47.982;12.238;2023-02-28T10:15:33;16.37;;;12.67;;
6997;SDS011;3539;47.982;12.238;2023-02-28T10:18:02;17.43;;;13.07;;
6997;SDS011;3539;47.982;12.238;2023-02-28T10:20:32;15.47;;;12.80;;
6997;SDS011;3539;47.982;12.238;2023-02-28T10:23:02;15.57;;;12.80;;
6997;SDS011;3539;47.982;12.238;2023-02-28T10:25:33;15.50;;;12.80;;
6997;SDS011;3539;47.982;12.238;2023-02-28T10:28:04;14.93;;;12.50;;
6997;SDS011;3539;47.982;12.238;2023-02-28T10:30:34;14.70;;;12.67;;
6997;SDS011;3539;47.982;12.238;2023-02-28T10:33:02;14.77;;;13.07;;
6997;SDS011;3539;47.982;12.238;2023-02-28T10:35:29;17.30;;;13.40;;
6997;SDS011;3539;47.982;12.238;2023-02-28T10:37:59;17.97;;;13.20;;
6997;SDS011;3539;47.982;12.238;2023-02-28T10:40:29;14.83;;;12.70;;
6997;SDS011;3539;47.982;12.238;2023-02-28T10:42:59;15.33;;;13.17;;
6997;SDS011;3539;47.982;12.238;2023-02-28T10:45:28;14.30;;;12.80;;
6997;SDS011;3539;47.982;12.238;2023-02-28T10:47:57;13.67;;;12.27;;
6997;SDS011;3539;47.982;12.238;2023-02-28T10:50:29;15.47;;;12.80;;
6997;SDS011;3539;47.982;12.238;2023-02-28T10:53:07;15.87;;;12.03;;
6997;SDS011;3539;47.982;12.238;2023-02-28T10:55:41;15.40;;;12.20;;
6997;SDS011;3539;47.982;12.238;2023-02-28T10:58:18;19.23;;;14.70;;
6997;SDS011;3539;47.982;12.238;2023-02-28T11:00:47;20.43;;;15.27;;
6997;SDS011;3539;47.982;12.238;2023-02-28T11:03:22;19.07;;;14.23;;
6997;SDS011;3539;47.982;12.238;2023-02-28T11:05:50;16.23;;;12.47;;
6997;SDS011;3539;47.982;12.238;2023-02-28T11:08:18;17.47;;;13.10;;
6997;SDS011;3539;47.982;12.238;2023-02-28T11:10:45;22.00;;;15.30;;
6997;SDS011;3539;47.982;12.238;2023-02-28T11:13:16;15.87;;;12.63;;
6997;SDS011;3539;47.982;12.238;2023-02-28T11:15:47;18.87;;;14.87;;
6997;SDS011;3539;47.982;12.238;2023-02-28T11:18:21;14.23;;;11.97;;
6997;SDS011;3539;47.982;12.238;2023-02-28T11:20:50;14.37;;;11.43;;
6997;SDS011;3539;47.982;12.238;2023-02-28T11:23:20;14.30;;;11.33;;
6997;SDS011;3539;47.982;12.238;2023-02-28T11:25:47;12.97;;;11.37;;
6997;SDS011;3539;47.982;12.238;2023-02-28T11:28:26;13.33;;;10.90;;
6997;SDS011;3539;47.982;12.238;2023-02-28T11:31:04;13.27;;;11.73;;
6997;SDS011;3539;47.982;12.238;2023-02-28T11:33:40;14.50;;;10.90;;
6997;SDS011;3539;47.982;12.238;2023-02-28T11:36:09;13.57;;;11.50;;
6997;SDS011;3539;47.982;12.238;2023-02-28T11:38:39;13.10;;;10.83;;
6997;SDS011;3539;47.982;12.238;2023-02-28T11:41:11;13.40;;;11.43;;
6997;SDS011;3539;47.982;12.238;2023-02-28T11:43:50;14.63;;;11.87;;
6997;SDS011;3539;47.982;12.238;2023-02-28T11:46:24;13.37;;;11.53;;
6997;SDS011;3539;47.982;12.238;2023-02-28T11:48:58;13.47;;;10.83;;
6997;SDS011;3539;47.982;12.238;2023-02-28T11:51:32;13.87;;;11.20;;
6997;SDS011;3539;47.982;12.238;2023-02-28T11:57:00;12.27;;;10.87;;
6997;SDS011;3539;47.982;12.238;2023-02-28T11:59:36;13.30;;;11.37;;
6997;SDS011;3539;47.982;12.238;2023-02-28T12:02:25;12.37;;;10.60;;
6997;SDS011;3539;47.982;12.238;2023-02-28T12:04:58;13.03;;;10.87;;
6997;SDS011;3539;47.982;12.238;2023-02-28T12:07:35;11.60;;;10.33;;
6997;SDS011;3539;47.982;12.238;2023-02-28T12:10:11;14.33;;;11.00;;
6997;SDS011;3539;47.982;12.238;2023-02-28T12:12:49;12.00;;;10.70;;
6997;SDS011;3539;47.982;12.238;2023-02-28T12:15:28;12.57;;;10.80;;
6997;SDS011;3539;47.982;12.238;2023-02-28T12:18:15;13.80;;;11.23;;
6997;SDS011;3539;47.982;12.238;2023-02-28T12:20:50;11.67;;;10.47;;
6997;SDS011;3539;47.982;12.238;2023-02-28T12:23:27;12.20;;;10.80;;
6997;SDS011;3539;47.982;12.238;2023-02-28T12:26:09;14.57;;;10.83;;
6997;SDS011;3539;47.982;12.238;2023-02-28T12:28:43;12.77;;;11.37;;
6997;SDS011;3539;47.982;12.238;2023-02-28T12:31:14;12.33;;;10.70;;
6997;SDS011;3539;47.982;12.238;2023-02-28T12:33:45;17.13;;;13.17;;
6997;SDS011;3539;47.982;12.238;2023-02-28T12:36:14;13.27;;;11.00;;
6997;SDS011;3539;47.982;12.238;2023-02-28T12:38:44;13.07;;;10.20;;
6997;SDS011;3539;47.982;12.238;2023-02-28T12:41:16;12.63;;;10.30;;
6997;SDS011;3539;47.982;12.238;2023-02-28T12:43:46;12.10;;;10.33;;
6997;SDS011;3539;47.982;12.238;2023-02-28T12:46:15;12.93;;;10.43;;
6997;SDS011;3539;47.982;12.238;2023-02-28T12:48:44;11.53;;;9.67;;
6997;SDS011;3539;47.982;12.238;2023-02-28T12:51:13;11.10;;;9.93;;
6997;SDS011;3539;47.982;12.238;2023-02-28T12:53:47;12.57;;;10.37;;
6997;SDS011;3539;47.982;12.238;2023-02-28T12:56:21;12.43;;;10.13;;
6997;SDS011;3539;47.982;12.238;2023-02-28T12:58:51;13.10;;;10.50;;
6997;SDS011;3539;47.982;12.238;2023-02-28T13:07:24;17.57;;;10.80;;
6997;SDS011;3539;47.982;12.238;2023-02-28T13:10:00;13.00;;;10.83;;
6997;SDS011;3539;47.982;12.238;2023-02-28T13:12:30;12.97;;;11.00;;
6997;SDS011;3539;47.982;12.238;2023-02-28T13:15:05;12.83;;;11.20;;
6997;SDS011;3539;47.982;12.238;2023-02-28T13:17:38;13.67;;;10.83;;
6997;SDS011;3539;47.982;12.238;2023-02-28T13:20:13;16.17;;;11.73;;
6997;SDS011;3539;47.982;12.238;2023-02-28T13:22:42;13.23;;;10.40;;
6997;SDS011;3539;47.982;12.238;2023-02-28T13:28:56;12.50;;;10.27;;
6997;SDS011;3539;47.982;12.238;2023-02-28T13:31:33;11.93;;;10.17;;
6997;SDS011;3539;47.982;12.238;2023-02-28T13:34:46;12.93;;;10.67;;
6997;SDS011;3539;47.982;12.238;2023-02-28T13:37:35;12.70;;;10.97;;
6997;SDS011;3539;47.982;12.238;2023-02-28T13:40:14;13.27;;;11.17;;
6997;SDS011;3539;47.982;12.238;2023-02-28T13:42:54;13.00;;;10.53;;
6997;SDS011;3539;47.982;12.238;2023-02-28T13:45:25;13.00;;;10.73;;
6997;SDS011;3539;47.982;12.238;2023-02-28T13:47:55;13.07;;;11.23;;
6997;SDS011;3539;47.982;12.238;2023-02-28T13:50:29;12.93;;;10.67;;
6997;SDS011;3539;47.982;12.238;2023-02-28T13:53:02;11.77;;;10.50;;
6997;SDS011;3539;47.982;12.238;2023-02-28T13:55:44;12.23;;;10.37;;
6997;SDS011;3539;47.982;12.238;2023-02-28T13:58:21;11.53;;;10.00;;
6997;SDS011;3539;47.982;12.238;2023-02-28T14:01:00;15.27;;;11.87;;
6997;SDS011;3539;47.982;12.238;2023-02-28T14:03:41;11.97;;;10.33;;
6997;SDS011;3539;47.982;12.238;2023-02-28T14:06:25;18.23;;;12.60;;
6997;SDS011;3539;47.982;12.238;2023-02-28T14:08:55;13.63;;;11.47;;
6997;SDS011;3539;47.982;12.238;2023-02-28T14:11:25;11.50;;;10.30;;
6997;SDS011;3539;47.982;12.238;2023-02-28T14:13:57;12.17;;;10.83;;
6997;SDS011;3539;47.982;12.238;2023-02-28T14:16:24;13.80;;;11.50;;
6997;SDS011;3539;47.982;12.238;2023-02-28T14:18:57;11.63;;;10.43;;
6997;SDS011;3539;47.982;12.238;2023-02-28T14:21:26;11.53;;;10.33;;
6997;SDS011;3539;47.982;12.238;2023-02-28T14:24:09;12.17;;;10.83;;
6997;SDS011;3539;47.982;12.238;2023-02-28T14:26:51;15.10;;;11.47;;
6997;SDS011;3539;47.982;12.238;2023-02-28T14:29:28;12.80;;;11.27;;
6997;SDS011;3539;47.982;12.238;2023-02-28T14:32:10;14.67;;;11.67;;
6997;SDS011;3539;47.982;12.238;2023-02-28T14:34:44;13.20;;;11.13;;
6997;SDS011;3539;47.982;12.238;2023-02-28T14:37:16;18.33;;;12.83;;
6997;SDS011;3539;47.982;12.238;2023-02-28T14:39:47;17.33;;;13.43;;
6997;SDS011;3539;47.982;12.238;2023-02-28T14:42:27;14.43;;;12.83;;
6997;SDS011;3539;47.982;12.238;2023-02-28T14:44:55;17.60;;;14.63;;
6997;SDS011;3539;47.982;12.238;2023-02-28T14:47:24;15.43;;;12.87;;
6997;SDS011;3539;47.982;12.238;2023-02-28T14:49:54;15.10;;;12.33;;
6997;SDS011;3539;47.982;12.238;2023-02-28T14:52:22;26.10;;;18.73;;
6997;SDS011;3539;47.982;12.238;2023-02-28T14:54:51;33.37;;;24.13;;
6997;SDS011;3539;47.982;12.238;2023-02-28T14:57:22;16.63;;;13.27;;
6997;SDS011;3539;47.982;12.238;2023-02-28T14:59:57;13.93;;;11.97;;
6997;SDS011;3539;47.982;12.238;2023-02-28T15:02:29;13.40;;;12.00;;
6997;SDS011;3539;47.982;12.238;2023-02-28T15:04:59;19.37;;;15.23;;
6997;SDS011;3539;47.982;12.238;2023-02-28T15:07:27;18.70;;;16.43;;
6997;SDS011;3539;47.982;12.238;2023-02-28T15:10:11;15.83;;;13.23;;
6997;SDS011;3539;47.982;12.238;2023-02-28T15:12:45;14.60;;;11.80;;
6997;SDS011;3539;47.982;12.238;2023-02-28T15:15:15;15.00;;;12.63;;
6997;SDS011;3539;47.982;12.238;2023-02-28T15:17:43;16.57;;;13.57;;
6997;SDS011;3539;47.982;12.238;2023-02-28T15:20:13;14.70;;;11.70;;
6997;SDS011;3539;47.982;12.238;2023-02-28T15:22:43;12.77;;;11.37;;